createdAt,value
2019-04-20T00:00:56.361Z,7.50
2019-04-20T00:03:32.183Z,7.50
2019-04-20T00:06:01.455Z,7.40
2019-04-20T00:08:36.085Z,7.40
2019-04-20T00:11:12.700Z,7.50
2019-04-20T00:13:49.854Z,7.50
2019-04-20T00:16:12.608Z,7.50
2019-04-20T00:18:48.879Z,7.40
2019-04-20T00:21:35.712Z,7.30
2019-04-20T00:24:16.974Z,7.20
2019-04-20T00:27:11.773Z,7.30
2019-04-20T00:29:38.233Z,7.50
2019-04-20T00:32:01.631Z,7.50
2019-04-20T00:34:29.217Z,7.50
2019-04-20T00:36:54.166Z,7.60
2019-04-20T00:39:25.854Z,7.70
2019-04-20T00:42:03.781Z,7.80
2019-04-20T00:44:35.883Z,7.90
2019-04-20T00:47:17.039Z,8.00
2019-04-20T00:49:48.155Z,7.80
2019-04-20T00:52:27.673Z,7.60
2019-04-20T00:54:43.114Z,7.50
2019-04-20T00:57:24.766Z,7.60
2019-04-20T01:00:06.184Z,7.60
2019-04-20T01:02:32.638Z,7.60
2019-04-20T01:05:11.029Z,7.60
2019-04-20T01:07:54.696Z,7.50
2019-04-20T01:10:21.690Z,7.50
2019-04-20T01:13:01.383Z,7.50
2019-04-20T01:15:36.376Z,7.50
2019-04-20T01:17:58.202Z,7.50
2019-04-20T01:20:29.222Z,7.40
2019-04-20T01:23:06.714Z,7.50
2019-04-20T01:25:37.877Z,7.50
2019-04-20T01:28:24.566Z,7.50
2019-04-20T01:30:44.450Z,7.40
2019-04-20T01:33:25.167Z,7.40
2019-04-20T01:35:56.868Z,7.40
2019-04-20T01:38:31.959Z,7.50
2019-04-20T01:40:50.321Z,7.50
2019-04-20T01:43:22.576Z,7.50
2019-04-20T01:46:01.344Z,7.50
2019-04-20T01:48:30.781Z,7.50
2019-04-20T01:51:07.148Z,7.40
2019-04-20T01:53:53.749Z,7.50
2019-04-20T01:56:24.766Z,7.40
2019-04-20T01:59:15.971Z,7.40
2019-04-20T02:01:45.596Z,7.40
2019-04-20T02:04:30.404Z,7.30
2019-04-20T02:06:59.691Z,7.30
2019-04-20T02:09:31.159Z,7.40
2019-04-20T02:12:08.369Z,7.30
2019-04-20T02:14:41.212Z,7.30
2019-04-20T02:17:17.985Z,7.30
2019-04-20T02:19:59.805Z,7.20
2019-04-20T02:22:30.329Z,7.10
2019-04-20T02:24:44.834Z,7.10
2019-04-20T02:27:20.561Z,7.20
2019-04-20T02:30:14.219Z,7.10
2019-04-20T02:33:09.798Z,7.00
2019-04-20T02:35:42.681Z,7.00
2019-04-20T02:38:58.438Z,6.90
2019-04-20T02:40:50.607Z,6.80
2019-04-20T02:43:35.660Z,6.90
2019-04-20T02:45:51.003Z,6.90
2019-04-20T02:48:25.925Z,6.80
2019-04-20T02:51:04.535Z,6.80
2019-04-20T02:53:41.608Z,6.80
2019-04-20T02:56:09.063Z,6.70
2019-04-20T02:58:41.702Z,6.70
2019-04-20T03:01:03.912Z,6.70
2019-04-20T03:03:25.138Z,6.60
2019-04-20T03:06:04.637Z,6.70
2019-04-20T03:08:40.598Z,6.60
2019-04-20T03:11:24.360Z,6.60
2019-04-20T03:13:50.325Z,6.60
2019-04-20T03:16:16.685Z,6.60
2019-04-20T03:18:50.790Z,6.60
2019-04-20T03:21:24.771Z,6.60
2019-04-20T03:24:12.681Z,6.60
2019-04-20T03:26:51.996Z,6.70
2019-04-20T03:29:58.973Z,6.70
2019-04-20T03:32:57.316Z,6.80
2019-04-20T03:35:12.042Z,6.90
2019-04-20T03:37:42.199Z,6.90
2019-04-20T03:40:06.847Z,6.80
2019-04-20T03:42:24.450Z,6.90
2019-04-20T03:45:00.475Z,7.00
2019-04-20T03:47:38.399Z,7.00
2019-04-20T03:50:24.456Z,7.00
2019-04-20T03:53:19.139Z,7.00
2019-04-20T03:56:03.884Z,7.00
2019-04-20T03:58:50.529Z,7.10
2019-04-20T04:02:22.445Z,7.20
2019-04-20T04:04:34.442Z,7.30
2019-04-20T04:06:51.507Z,7.70
2019-04-20T04:09:31.629Z,8.40
2019-04-20T04:12:03.760Z,8.60
2019-04-20T04:14:24.031Z,8.70
2019-04-20T04:16:59.161Z,9.00
2019-04-20T04:19:31.713Z,9.30
2019-04-20T04:22:12.675Z,9.70
2019-04-20T04:24:52.461Z,9.60
2019-04-20T04:27:28.537Z,9.80
2019-04-20T04:29:58.288Z,9.90
2019-04-20T04:32:45.672Z,9.50
2019-04-20T04:35:03.068Z,9.20
2019-04-20T04:37:35.490Z,9.50
2019-04-20T04:40:23.534Z,9.40
2019-04-20T04:42:43.927Z,9.30
2019-04-20T04:45:01.613Z,9.90
2019-04-20T04:47:26.705Z,9.90
2019-04-20T04:50:05.603Z,10.00
2019-04-20T04:52:44.546Z,9.70
2019-04-20T04:55:16.177Z,9.30
2019-04-20T04:57:36.643Z,9.10
2019-04-20T05:00:11.144Z,9.10
2019-04-20T05:02:46.787Z,9.20
2019-04-20T05:05:41.259Z,8.80
2019-04-20T05:08:02.773Z,8.60
2019-04-20T05:10:26.656Z,8.50
2019-04-20T05:12:58.750Z,8.60
2019-04-20T05:15:46.177Z,8.90
2019-04-20T05:18:28.617Z,9.10
2019-04-20T05:20:58.799Z,9.30
2019-04-20T05:23:35.132Z,9.50
2019-04-20T05:26:30.984Z,10.10
2019-04-20T05:28:55.716Z,11.10
2019-04-20T05:31:23.546Z,11.10
2019-04-20T05:34:15.990Z,11.20
2019-04-20T05:36:45.108Z,11.60
2019-04-20T05:39:22.395Z,11.70
2019-04-20T05:41:45.766Z,11.90
2019-04-20T05:44:22.166Z,11.60
2019-04-20T05:49:33.146Z,10.90
2019-04-20T05:52:10.724Z,11.20
2019-04-20T05:54:39.095Z,11.60
2019-04-20T05:57:14.964Z,12.50
2019-04-20T05:59:49.382Z,12.60
2019-04-20T06:02:16.952Z,12.60
2019-04-20T06:09:54.547Z,13.90
2019-04-20T06:12:20.631Z,13.20
2019-04-20T06:15:08.025Z,13.70
2019-04-20T06:20:38.025Z,14.50
2019-04-20T06:23:34.308Z,15.40
2019-04-20T06:26:13.189Z,14.50
2019-04-20T06:28:26.819Z,15.20
2019-04-20T06:30:59.533Z,15.30
2019-04-20T06:34:27.701Z,15.70
2019-04-20T06:36:49.646Z,15.40
2019-04-20T06:39:24.327Z,14.80
2019-04-20T06:44:31.971Z,14.30
2019-04-20T06:47:11.665Z,14.40
2019-04-20T06:49:33.441Z,13.80
2019-04-20T06:52:26.170Z,13.20
2019-04-20T06:55:06.961Z,13.00
2019-04-20T06:57:56.336Z,13.00
2019-04-20T07:00:15.351Z,13.10
2019-04-20T07:03:01.880Z,12.70
2019-04-20T07:05:22.448Z,13.00
2019-04-20T07:07:53.400Z,12.80
2019-04-20T07:10:26.266Z,14.20
2019-04-20T07:15:30.250Z,14.70
2019-04-20T07:18:13.888Z,15.30
2019-04-20T07:21:12.789Z,15.20
2019-04-20T07:23:47.490Z,16.10
2019-04-20T07:26:25.044Z,17.00
2019-04-20T07:31:18.408Z,16.70
2019-04-20T07:33:52.396Z,16.80
2019-04-20T07:36:34.802Z,16.70
2019-04-20T07:39:03.931Z,16.90
2019-04-20T07:44:13.131Z,16.80
2019-04-20T07:49:07.657Z,17.20
2019-04-20T07:56:42.427Z,17.30
2019-04-20T07:58:58.668Z,16.80
2019-04-20T08:02:07.807Z,16.60
2019-04-20T08:04:52.437Z,16.60
2019-04-20T08:07:10.622Z,15.90
2019-04-20T08:15:24.068Z,17.00
2019-04-20T08:22:56.918Z,16.70
2019-04-20T08:25:16.193Z,15.90
2019-04-20T08:27:55.212Z,16.90
2019-04-20T08:34:04.818Z,16.80
2019-04-20T08:36:22.863Z,16.20
2019-04-20T08:39:16.973Z,15.40
2019-04-20T08:41:20.703Z,15.10
2019-04-20T08:43:58.977Z,15.60
2019-04-20T08:46:34.852Z,15.90
2019-04-20T08:56:31.862Z,16.00
2019-04-20T08:58:52.835Z,15.80
2019-04-20T09:01:27.169Z,15.30
2019-04-20T09:04:05.457Z,14.50
2019-04-20T09:06:41.785Z,14.20
2019-04-20T09:09:34.856Z,14.30
2019-04-20T09:11:55.626Z,14.80
2019-04-20T09:19:52.845Z,15.20
2019-04-20T09:22:50.650Z,16.20
2019-04-20T09:25:48.698Z,15.70
2019-04-20T09:28:15.662Z,15.60
2019-04-20T09:30:52.262Z,15.10
2019-04-20T09:33:51.347Z,15.10
2019-04-20T09:39:08.746Z,14.20
2019-04-20T09:41:58.901Z,14.20
2019-04-20T09:44:09.270Z,13.70
2019-04-20T09:46:48.575Z,13.30
2019-04-20T09:49:20.047Z,13.80
2019-04-20T09:52:05.229Z,13.80
2019-04-20T10:04:23.949Z,14.00
2019-04-20T10:06:55.260Z,14.50
2019-04-20T10:14:29.354Z,14.30
2019-04-20T10:17:00.180Z,14.50
2019-04-20T10:19:34.051Z,13.50
2019-04-20T10:22:04.554Z,13.50
2019-04-20T10:24:36.648Z,13.20
2019-04-20T10:27:08.384Z,12.40
2019-04-20T10:29:39.713Z,12.00
2019-04-20T10:32:14.188Z,11.80
2019-04-20T10:34:42.734Z,11.90
2019-04-20T10:37:19.828Z,11.50
2019-04-20T10:39:52.332Z,11.50
2019-04-20T10:42:24.268Z,12.10
2019-04-20T10:44:57.085Z,12.40
2019-04-20T10:47:27.342Z,12.20
2019-04-20T10:49:58.898Z,12.40
2019-04-20T10:52:29.860Z,11.90
2019-04-20T10:55:00.673Z,11.60
2019-04-20T10:57:33.424Z,11.60
2019-04-20T11:00:05.835Z,11.40
2019-04-20T11:02:39.362Z,10.70
2019-04-20T11:05:10.823Z,10.80
2019-04-20T11:07:44.251Z,11.10
2019-04-20T11:10:21.728Z,11.30
2019-04-20T11:12:48.425Z,11.60
2019-04-20T11:15:19.097Z,12.00
2019-04-20T11:17:51.267Z,12.00
2019-04-20T11:20:23.205Z,11.70
2019-04-20T11:22:54.174Z,11.90
2019-04-20T11:25:26.097Z,12.30
2019-04-20T11:27:58.426Z,12.10
2019-04-20T11:30:30.395Z,12.00
2019-04-20T11:33:02.227Z,12.00
2019-04-20T11:35:37.566Z,11.90
2019-04-20T11:38:07.011Z,11.90
2019-04-20T11:40:39.157Z,12.10
2019-04-20T11:43:11.375Z,12.50
2019-04-20T11:45:42.731Z,12.40
2019-04-20T11:48:15.764Z,12.40
2019-04-20T11:50:47.564Z,12.30
2019-04-20T11:53:19.478Z,11.70
2019-04-20T11:55:50.266Z,11.60
2019-04-20T11:58:21.764Z,11.80
2019-04-20T12:01:01.224Z,11.90
2019-04-20T12:03:35.404Z,11.90
2019-04-20T12:06:01.668Z,11.80
2019-04-20T12:08:32.654Z,11.60
2019-04-20T12:11:20.424Z,11.60
2019-04-20T12:13:36.692Z,11.60
2019-04-20T12:16:07.724Z,11.70
2019-04-20T12:18:38.533Z,11.80
2019-04-20T12:21:10.543Z,12.00
2019-04-20T12:23:42.335Z,12.00
2019-04-20T12:26:13.179Z,12.20
2019-04-20T12:28:43.836Z,12.30
2019-04-20T12:31:20.324Z,12.40
2019-04-20T12:33:48.318Z,12.30
2019-04-20T12:36:20.478Z,12.20
2019-04-20T12:38:51.343Z,12.00
2019-04-20T12:41:34.462Z,11.90
2019-04-20T12:43:54.483Z,11.60
2019-04-20T12:46:26.381Z,11.30
2019-04-20T12:48:57.786Z,11.50
2019-04-20T12:51:33.593Z,11.40
2019-04-20T12:54:00.842Z,11.40
2019-04-20T12:56:32.777Z,11.50
2019-04-20T12:59:03.725Z,11.50
2019-04-20T13:01:35.445Z,11.50
2019-04-20T13:04:08.932Z,11.60
2019-04-20T13:06:39.281Z,11.70
2019-04-20T13:09:12.792Z,11.80
2019-04-20T13:12:00.013Z,11.80
2019-04-20T13:15:12.167Z,11.70
2019-04-20T13:17:44.268Z,11.80
2019-04-20T13:20:16.153Z,11.90
2019-04-20T13:22:47.019Z,11.90
2019-04-20T13:25:18.799Z,11.60
2019-04-20T13:27:50.493Z,11.60
2019-04-20T13:30:21.809Z,11.50
2019-04-20T13:32:53.908Z,11.20
2019-04-20T13:35:26.083Z,11.30
2019-04-20T13:37:58.131Z,11.00
2019-04-20T13:40:31.005Z,11.00
2019-04-20T13:43:01.667Z,11.10
2019-04-20T13:45:32.942Z,11.10
2019-04-20T13:48:04.427Z,11.10
2019-04-20T13:50:36.025Z,11.10
2019-04-20T13:53:07.418Z,11.30
2019-04-20T13:55:40.102Z,11.30
2019-04-20T13:58:29.972Z,11.40
2019-04-20T14:01:14.678Z,11.50
2019-04-20T14:03:47.159Z,11.60
2019-04-20T14:06:18.514Z,11.60
2019-04-20T14:08:49.525Z,11.30
2019-04-20T14:11:21.067Z,11.00
2019-04-20T14:13:56.998Z,11.00
2019-04-20T14:16:25.113Z,11.00
2019-04-20T14:18:55.917Z,11.00
2019-04-20T14:21:26.503Z,11.10
2019-04-20T14:23:57.200Z,11.00
2019-04-20T14:26:28.939Z,11.00
2019-04-20T14:29:00.827Z,11.00
2019-04-20T14:31:32.183Z,11.00
2019-04-20T14:34:03.015Z,11.00
2019-04-20T14:36:34.868Z,10.90
2019-04-20T14:39:10.059Z,11.00
2019-04-20T14:41:42.258Z,10.90
2019-04-20T14:44:14.032Z,10.70
2019-04-20T14:46:45.525Z,10.70
2019-04-20T14:49:16.661Z,10.80
2019-04-20T14:51:47.769Z,10.80
2019-04-20T14:54:19.208Z,10.80
2019-04-20T14:56:51.591Z,10.90
2019-04-20T14:59:27.451Z,10.90
2019-04-20T15:02:02.791Z,10.80
2019-04-20T15:04:34.748Z,10.70
2019-04-20T15:07:06.693Z,10.80
2019-04-20T15:09:44.575Z,11.00
2019-04-20T15:12:16.893Z,10.80
2019-04-20T15:14:47.670Z,10.80
2019-04-20T15:17:25.653Z,10.90
2019-04-20T15:20:05.983Z,10.90
2019-04-20T15:22:43.400Z,11.00
2019-04-20T15:25:15.757Z,10.90
2019-04-20T15:27:47.997Z,10.80
2019-04-20T15:30:20.381Z,10.60
2019-04-20T15:32:52.370Z,10.50
2019-04-20T15:35:24.646Z,10.50
2019-04-20T15:37:55.500Z,10.30
2019-04-20T15:40:26.972Z,10.30
2019-04-20T15:43:05.963Z,10.30
2019-04-20T15:45:31.388Z,10.30
2019-04-20T15:48:02.233Z,10.40
2019-04-20T15:50:33.932Z,10.30
2019-04-20T15:53:05.905Z,10.40
2019-04-20T15:55:39.594Z,10.20
2019-04-20T15:58:10.254Z,10.20
2019-04-20T16:00:42.814Z,10.20
2019-04-20T16:03:29.674Z,10.10
2019-04-20T16:06:03.280Z,10.10
2019-04-20T16:08:36.702Z,10.10
2019-04-20T16:11:09.101Z,10.00
2019-04-20T16:13:45.775Z,10.00
2019-04-20T16:16:14.202Z,10.10
2019-04-20T16:18:50.727Z,10.10
2019-04-20T16:21:24.902Z,10.00
2019-04-20T16:23:59.146Z,9.90
2019-04-20T16:26:49.715Z,9.80
2019-04-20T16:29:21.691Z,9.80
2019-04-20T16:31:52.597Z,9.70
2019-04-20T16:34:23.434Z,9.60
2019-04-20T16:36:56.362Z,9.60
2019-04-20T16:39:26.550Z,9.50
2019-04-20T16:41:58.288Z,9.50
2019-04-20T16:44:29.391Z,9.50
2019-04-20T16:47:00.498Z,9.40
2019-04-20T16:49:31.273Z,9.50
2019-04-20T16:52:03.022Z,9.40
2019-04-20T16:54:33.835Z,9.40
2019-04-20T16:57:04.756Z,9.40
2019-04-20T16:59:41.404Z,9.30
2019-04-20T17:02:08.769Z,9.30
2019-04-20T17:04:40.822Z,9.40
2019-04-20T17:07:31.037Z,9.40
2019-04-20T17:10:02.312Z,9.40
2019-04-20T17:12:33.616Z,9.40
2019-04-20T17:15:05.572Z,9.30
2019-04-20T17:17:37.632Z,9.30
2019-04-20T17:20:09.453Z,9.30
2019-04-20T17:22:40.356Z,9.30
2019-04-20T17:25:12.293Z,9.40
2019-04-20T17:28:17.532Z,9.40
2019-04-20T17:31:07.555Z,9.40
2019-04-20T17:33:53.415Z,9.30
2019-04-20T17:36:20.816Z,9.30
2019-04-20T17:38:52.614Z,9.10
2019-04-20T17:41:42.957Z,9.00
2019-04-20T17:44:11.871Z,9.00
2019-04-20T17:46:35.752Z,9.00
2019-04-20T17:49:13.303Z,8.90
2019-04-20T17:51:56.873Z,9.10
2019-04-20T17:54:22.024Z,9.10
2019-04-20T17:56:54.314Z,9.10
2019-04-20T17:59:26.170Z,9.10
2019-04-20T18:02:30.579Z,9.00
2019-04-20T18:05:46.586Z,8.90
2019-04-20T18:08:20.437Z,9.00
2019-04-20T18:10:47.523Z,9.00
2019-04-20T18:13:13.723Z,8.90
2019-04-20T18:15:49.152Z,8.90
2019-04-20T18:18:40.885Z,8.90
2019-04-20T18:21:08.798Z,8.80
2019-04-20T18:23:44.357Z,8.70
2019-04-20T18:26:31.762Z,8.60
2019-04-20T18:29:03.677Z,8.60
2019-04-20T18:31:23.666Z,8.60
2019-04-20T18:34:00.685Z,8.50
2019-04-20T18:36:35.910Z,8.50
2019-04-20T18:39:06.622Z,8.50
2019-04-20T18:41:41.846Z,8.50
2019-04-20T18:44:10.631Z,8.50
2019-04-20T18:47:06.951Z,8.50
2019-04-20T18:49:27.226Z,8.60
2019-04-20T18:51:48.047Z,8.60
2019-04-20T18:54:22.331Z,8.60
2019-04-20T18:56:52.953Z,8.80
2019-04-20T18:59:31.930Z,8.90
2019-04-20T19:01:57.025Z,8.90
2019-04-20T19:04:28.060Z,8.80
2019-04-20T19:06:59.580Z,8.60
2019-04-20T19:09:32.337Z,8.70
2019-04-20T19:12:06.069Z,8.60
2019-04-20T19:15:04.998Z,8.60
2019-04-20T19:17:59.117Z,8.50
2019-04-20T19:20:30.746Z,8.70
2019-04-20T19:23:04.009Z,8.70
2019-04-20T19:25:38.996Z,8.60
2019-04-20T19:28:08.795Z,8.60
2019-04-20T19:30:47.007Z,8.50
2019-04-20T19:33:29.365Z,8.50
2019-04-20T19:35:53.015Z,8.50
2019-04-20T19:38:22.658Z,8.40
2019-04-20T19:40:58.404Z,8.40
2019-04-20T19:43:30.756Z,8.40
2019-04-20T19:46:36.655Z,8.50
2019-04-20T19:48:39.569Z,8.40
2019-04-20T19:51:25.493Z,8.30
2019-04-20T19:53:52.854Z,8.20
2019-04-20T19:56:16.630Z,8.20
2019-04-20T19:58:53.335Z,8.10
2019-04-20T20:01:09.299Z,8.20
2019-04-20T20:03:41.678Z,8.30
2019-04-20T20:06:23.726Z,8.30
2019-04-20T20:08:53.149Z,8.40
2019-04-20T20:11:26.549Z,8.40
2019-04-20T20:13:53.308Z,8.30
2019-04-20T20:16:30.431Z,8.30
2019-04-20T20:19:07.437Z,8.30
2019-04-20T20:21:46.742Z,8.30
2019-04-20T20:23:59.747Z,8.40
2019-04-20T20:26:37.016Z,8.50
2019-04-20T20:29:13.447Z,8.60
2019-04-20T20:31:54.029Z,8.60
2019-04-20T20:34:17.001Z,8.60
2019-04-20T20:36:47.106Z,8.50
2019-04-20T20:39:21.304Z,8.40
2019-04-20T20:41:58.071Z,8.30
2019-04-20T20:44:33.098Z,8.30
2019-04-20T20:46:59.508Z,8.40
2019-04-20T20:49:46.807Z,8.50
2019-04-20T20:52:17.057Z,8.50
2019-04-20T20:54:41.355Z,8.60
2019-04-20T20:57:08.939Z,8.70
2019-04-20T20:59:42.707Z,8.60
2019-04-20T21:02:14.557Z,8.70
2019-04-20T21:04:39.528Z,8.90
2019-04-20T21:07:10.974Z,8.90
2019-04-20T21:09:41.883Z,8.90
2019-04-20T21:12:16.272Z,8.80
2019-04-20T21:14:46.830Z,8.70
2019-04-20T21:17:21.811Z,8.50
2019-04-20T21:20:08.482Z,8.40
2019-04-20T21:22:41.292Z,8.40
2019-04-20T21:24:56.977Z,8.50
2019-04-20T21:27:27.828Z,8.60
2019-04-20T21:30:01.343Z,8.70
2019-04-20T21:32:33.080Z,8.60
2019-04-20T21:35:07.300Z,8.50
2019-04-20T21:37:37.044Z,8.60
2019-04-20T21:40:21.645Z,8.50
2019-04-20T21:42:48.182Z,8.50
2019-04-20T21:45:19.465Z,8.40
2019-04-20T21:47:47.001Z,8.40
2019-04-20T21:50:34.886Z,8.40
2019-04-20T21:52:55.135Z,8.40
2019-04-20T21:55:23.756Z,8.30
2019-04-20T21:58:00.013Z,8.30
2019-04-20T22:01:07.174Z,8.30
2019-04-20T22:03:26.780Z,8.30
2019-04-20T22:06:06.823Z,8.50
2019-04-20T22:08:44.621Z,8.50
2019-04-20T22:11:11.692Z,8.50
2019-04-20T22:13:44.609Z,8.50
2019-04-20T22:16:16.705Z,8.60
2019-04-20T22:18:53.990Z,8.70
2019-04-20T22:21:26.493Z,8.80
2019-04-20T22:24:04.170Z,8.70
2019-04-20T22:26:31.005Z,8.50
2019-04-20T22:28:56.364Z,8.60
2019-04-20T22:31:27.185Z,8.60
2019-04-20T22:34:00.809Z,8.60
2019-04-20T22:36:33.865Z,8.70
2019-04-20T22:39:11.743Z,8.80
2019-04-20T22:41:58.611Z,8.70
2019-04-20T22:44:26.651Z,8.80
2019-04-20T22:46:58.537Z,8.90
2019-04-20T22:49:44.237Z,9.00
2019-04-20T22:52:14.287Z,9.10
2019-04-20T22:54:52.198Z,9.10
2019-04-20T22:57:22.930Z,9.20
2019-04-20T22:59:52.364Z,9.20
2019-04-20T23:02:11.737Z,9.20
2019-04-20T23:04:44.602Z,9.20
2019-04-20T23:07:16.736Z,9.20
2019-04-20T23:09:54.413Z,9.30
2019-04-20T23:12:23.299Z,9.30
2019-04-20T23:14:52.453Z,9.40
2019-04-20T23:17:29.603Z,9.40
2019-04-20T23:19:59.503Z,9.50
2019-04-20T23:22:34.812Z,9.50
2019-04-20T23:24:59.931Z,9.50
2019-04-20T23:27:32.053Z,9.50
2019-04-20T23:30:11.109Z,9.40
2019-04-20T23:32:36.211Z,9.40
2019-04-20T23:35:11.870Z,9.30
2019-04-20T23:37:41.558Z,9.40
2019-04-20T23:40:13.699Z,9.30
2019-04-20T23:42:51.715Z,9.20
2019-04-20T23:45:50.739Z,9.10
2019-04-20T23:48:35.323Z,9.10
2019-04-20T23:51:27.858Z,9.00
2019-04-20T23:53:49.197Z,9.00
2019-04-20T23:56:07.913Z,8.90
2019-04-20T23:58:44.143Z,8.90
